Time;durP1;ratioP1;P1;durP2;ratioP2;P2;SDS_P1;SDS_P2;PMS_P1;PMS_P2;Temp;Humidity;BMP_temperature;BMP_pressure;BME280_temperature;BME280_humidity;BME280_pressure;Samples;Min_cycle;Max_cycle;Signal;HPM_P1;HPM_P2
2021/03/05 00:00:37;;;;;;;8.00;2.33;;;;;;;14.34;37.71;103010.81;5055152;28;20028;-69
2021/03/05 00:03:04;;;;;;;11.60;2.80;;;;;;;14.18;38.41;103023.00;5055064;28;20021;-69
2021/03/05 00:05:30;;;;;;;12.88;2.38;;;;;;;14.52;37.92;103020.38;5053841;28;20021;-76
2021/03/05 00:07:56;;;;;;;17.80;3.55;;;;;;;14.47;38.27;103020.41;5054828;28;20036;-70
2021/03/05 00:10:29;;;;;;;6.32;2.20;;;;;;;14.28;38.52;103018.28;5054946;28;20029;-69
2021/03/05 00:12:55;;;;;;;13.27;2.70;;;;;;;14.28;38.50;103018.28;5054854;28;20470;-69
2021/03/05 00:15:23;;;;;;;6.47;2.05;;;;;;;14.20;38.71;103018.84;5055073;28;20433;-69
2021/03/05 00:17:48;;;;;;;9.68;2.28;;;;;;;14.27;38.99;103018.53;5054725;28;20029;-69
2021/03/05 00:20:17;;;;;;;14.02;3.20;;;;;;;14.20;39.06;103020.78;5053867;28;20032;-69
2021/03/05 00:22:42;;;;;;;16.45;3.05;;;;;;;14.34;38.56;103024.56;5054186;28;20467;-77
2021/03/05 00:25:09;;;;;;;12.07;2.92;;;;;;;14.28;38.41;103025.69;5054457;28;20032;-69
2021/03/05 00:27:35;;;;;;;17.42;2.97;;;;;;;14.43;38.00;103026.44;5054386;28;20483;-69
2021/03/05 00:30:02;;;;;;;7.57;2.63;;;;;;;14.55;37.41;103026.13;5054322;28;20041;-69
2021/03/05 00:32:27;;;;;;;7.47;2.13;;;;;;;14.45;37.46;103020.66;5054376;28;20163;-69
2021/03/05 00:34:53;;;;;;;17.63;3.70;;;;;;;14.46;37.60;103027.00;5054419;28;20120;-79
2021/03/05 00:37:19;;;;;;;10.13;2.30;;;;;;;14.66;37.09;103024.97;5054218;28;20033;-69
2021/03/05 00:39:45;;;;;;;8.32;1.50;;;;;;;14.37;37.22;103027.56;5054194;28;20133;-68
2021/03/05 00:42:11;;;;;;;12.98;2.70;;;;;;;14.71;36.91;103022.16;5054440;28;20108;-69
2021/03/05 00:44:37;;;;;;;12.40;2.72;;;;;;;14.65;36.97;103027.97;5054493;28;20080;-69
2021/03/05 00:47:02;;;;;;;14.32;2.83;;;;;;;14.50;37.17;103033.56;5054030;28;20395;-69
2021/03/05 00:49:28;;;;;;;9.40;1.98;;;;;;;14.62;36.69;103025.81;5054200;28;20162;-68
2021/03/05 00:51:54;;;;;;;6.80;2.35;;;;;;;14.49;37.12;103031.94;5054127;28;20029;-72
2021/03/05 00:54:21;;;;;;;7.03;2.67;;;;;;;14.59;37.32;103018.97;5054059;28;20025;-71
2021/03/05 00:56:46;;;;;;;12.73;2.90;;;;;;;14.43;37.85;103031.94;5054042;28;20037;-68
2021/03/05 00:59:12;;;;;;;5.57;1.98;;;;;;;14.34;37.82;103022.63;5054035;28;20028;-69
2021/03/05 01:01:38;;;;;;;13.02;2.38;;;;;;;14.49;37.73;103026.44;5053807;28;20078;-69
2021/03/05 01:04:03;;;;;;;11.10;3.40;;;;;;;14.41;38.21;103033.31;5053908;28;20064;-70
2021/03/05 01:06:29;;;;;;;16.23;2.83;;;;;;;14.50;38.16;103036.31;5053286;28;20041;-69
2021/03/05 01:08:55;;;;;;;13.02;2.75;;;;;;;14.43;38.57;103026.44;5053804;28;20021;-69
2021/03/05 01:11:20;;;;;;;9.82;2.97;;;;;;;14.91;37.87;103034.13;5053713;28;20090;-69
2021/03/05 01:13:47;;;;;;;11.43;2.50;;;;;;;14.72;38.20;103025.72;5053639;28;20509;-69
2021/03/05 01:16:12;;;;;;;8.10;2.42;;;;;;;14.95;37.96;103029.69;5053490;28;20036;-69
2021/03/05 01:18:39;;;;;;;7.60;2.85;;;;;;;14.99;37.88;103028.84;5053254;28;20036;-69
2021/03/05 01:21:04;;;;;;;21.33;4.35;;;;;;;15.31;37.38;103023.88;5052771;28;20479;-69
2021/03/05 01:23:31;;;;;;;11.88;3.40;;;;;;;14.86;38.03;103029.47;5053122;28;20025;-69
2021/03/05 01:25:57;;;;;;;8.95;2.42;;;;;;;15.06;37.76;103027.69;5051627;28;20025;-68
2021/03/05 01:28:23;;;;;;;8.93;1.98;;;;;;;14.87;37.62;103027.56;5051550;28;20037;-69
2021/03/05 01:30:48;;;;;;;11.32;2.85;;;;;;;14.78;37.86;103029.28;5051499;28;20032;-73
2021/03/05 01:33:14;;;;;;;13.80;2.80;;;;;;;15.07;37.38;103041.16;5051521;28;20060;-69
2021/03/05 01:35:40;;;;;;;7.93;1.95;;;;;;;15.16;36.85;103033.09;5051418;28;20039;-69
2021/03/05 01:38:05;;;;;;;9.73;2.65;;;;;;;15.26;36.99;103025.59;5051578;28;20033;-70
2021/03/05 01:40:33;;;;;;;8.63;1.95;;;;;;;14.83;37.91;103032.81;5050557;28;20499;-69
2021/03/05 01:42:59;;;;;;;9.52;2.45;;;;;;;14.91;38.08;103036.91;5052857;28;20117;-70
2021/03/05 01:45:30;;;;;;;14.32;3.03;;;;;;;14.86;38.17;103037.75;5053197;28;20036;-68
2021/03/05 01:47:59;;;;;;;16.90;3.13;;;;;;;15.05;37.86;103026.88;5053116;28;20079;-69
2021/03/05 01:50:30;;;;;;;19.40;2.42;;;;;;;14.96;37.85;103037.69;5053087;28;20108;-69
2021/03/05 01:53:01;;;;;;;10.63;2.92;;;;;;;15.10;37.58;103035.06;5051711;28;20078;-69
2021/03/05 01:55:27;;;;;;;14.60;2.38;;;;;;;15.10;37.30;103037.81;5053033;28;20017;-68
2021/03/05 01:57:54;;;;;;;19.00;2.50;;;;;;;15.12;36.80;103032.88;5052816;28;20112;-69
2021/03/05 02:00:30;;;;;;;9.43;2.92;;;;;;;15.32;36.53;103025.53;5052944;28;20044;-68
2021/03/05 02:02:56;;;;;;;7.80;1.88;;;;;;;15.47;35.88;103033.66;5052870;28;20086;-69
2021/03/05 02:05:22;;;;;;;8.68;1.83;;;;;;;15.59;35.66;103039.59;5052805;28;20108;-69
2021/03/05 02:07:48;;;;;;;9.93;2.70;;;;;;;15.66;35.24;103042.88;5053024;28;20473;-69
2021/03/05 02:10:13;;;;;;;7.45;1.67;;;;;;;15.03;36.15;103036.50;5052660;28;20130;-69
2021/03/05 02:12:39;;;;;;;9.27;2.15;;;;;;;14.53;37.13;103041.28;5052896;28;20028;-79
2021/03/05 02:15:06;;;;;;;12.18;1.75;;;;;;;14.21;37.63;103039.75;5052651;28;20028;-69
2021/03/05 02:17:36;;;;;;;10.63;1.98;;;;;;;14.37;37.29;103046.81;5052671;28;20422;-68
2021/03/05 02:20:10;;;;;;;10.18;1.88;;;;;;;14.38;37.38;103048.47;5052874;28;20052;-70
2021/03/05 02:22:54;;;;;;;11.70;3.10;;;;;;;14.61;37.24;103046.19;5052554;28;20152;-69
2021/03/05 02:25:48;;;;;;;20.67;3.30;;;;;;;14.69;37.62;103048.31;5052543;28;20026;-68
2021/03/05 02:28:32;;;;;;;8.18;2.08;;;;;;;14.68;37.51;103057.69;5052459;28;20033;-69
2021/03/05 02:31:09;;;;;;;18.40;3.25;;;;;;;14.75;37.46;103043.63;5052424;28;20024;-70
2021/03/05 02:34:10;;;;;;;10.52;2.60;;;;;;;14.54;37.42;103049.25;5051437;28;20025;-69
2021/03/05 02:37:23;;;;;;;8.15;2.03;;;;;;;14.47;37.58;103047.91;5051814;28;20033;-69
2021/03/05 02:40:05;;;;;;;6.50;2.00;;;;;;;14.18;37.55;103051.31;5029862;28;20077;-69
2021/03/05 02:42:37;;;;;;;9.30;2.50;;;;;;;14.03;38.47;103043.94;5016170;28;20435;-69
2021/03/05 02:45:17;;;;;;;17.85;2.83;;;;;;;14.35;38.04;103042.69;5050577;28;20082;-69
2021/03/05 02:47:46;;;;;;;9.27;2.25;;;;;;;14.25;38.13;103040.81;5059259;28;20165;-69
2021/03/05 02:50:19;;;;;;;9.15;2.75;;;;;;;14.23;37.73;103040.28;5058960;28;20052;-68
2021/03/05 02:52:46;;;;;;;14.02;2.72;;;;;;;14.37;37.90;103043.25;5058778;28;20025;-69
2021/03/05 02:55:13;;;;;;;17.55;2.78;;;;;;;14.38;37.82;103042.97;5058865;28;20111;-69
2021/03/05 02:57:45;;;;;;;12.68;2.80;;;;;;;14.19;38.39;103047.44;5058785;28;20514;-69
2021/03/05 03:00:13;;;;;;;14.43;3.40;;;;;;;14.43;37.94;103051.19;5058903;28;20052;-69
2021/03/05 03:02:40;;;;;;;10.07;2.35;;;;;;;14.31;38.26;103053.44;5058775;28;20021;-69
2021/03/05 03:05:07;;;;;;;4.85;2.08;;;;;;;14.39;38.04;103047.34;5058782;28;20028;-69
2021/03/05 03:07:34;;;;;;;12.48;3.25;;;;;;;14.39;38.16;103043.78;5057506;28;20444;-69
2021/03/05 03:10:03;;;;;;;9.77;1.90;;;;;;;14.26;38.09;103038.91;5058977;28;20029;-69
2021/03/05 03:12:29;;;;;;;9.65;2.58;;;;;;;14.36;38.19;103045.19;5058669;28;20104;-68
2021/03/05 03:14:55;;;;;;;11.68;2.90;;;;;;;14.29;38.21;103035.59;5058924;28;20100;-69
2021/03/05 03:17:22;;;;;;;9.40;2.22;;;;;;;14.41;38.19;103038.81;5058569;28;20029;-69
2021/03/05 03:19:51;;;;;;;12.88;3.28;;;;;;;14.55;38.30;103044.56;5055923;28;20021;-69
2021/03/05 03:22:18;;;;;;;11.50;2.70;;;;;;;14.51;38.30;103051.72;5058944;28;20028;-68
2021/03/05 03:24:44;;;;;;;7.43;2.60;;;;;;;14.41;38.52;103050.63;5058564;28;20017;-69
2021/03/05 03:27:10;;;;;;;34.55;5.47;;;;;;;14.62;38.24;103056.06;5058594;28;20103;-68
2021/03/05 03:29:36;;;;;;;14.45;2.58;;;;;;;14.59;38.46;103051.97;5058517;28;20051;-69
2021/03/05 03:32:03;;;;;;;12.75;3.45;;;;;;;14.44;38.55;103052.84;5058633;28;20037;-69
2021/03/05 03:34:29;;;;;;;24.90;5.22;;;;;;;14.48;38.62;103063.31;5058503;28;20114;-79
2021/03/05 03:36:56;;;;;;;12.00;2.25;;;;;;;14.47;38.61;103062.47;5058491;28;20056;-69
2021/03/05 03:39:23;;;;;;;15.48;3.45;;;;;;;14.61;38.41;103063.50;5058633;28;20068;-69
2021/03/05 03:41:49;;;;;;;17.10;3.15;;;;;;;14.52;38.91;103069.91;5058518;28;20052;-68
2021/03/05 03:44:14;;;;;;;16.75;3.50;;;;;;;14.63;38.67;103069.53;5058230;28;20457;-68
2021/03/05 03:46:47;;;;;;;15.20;3.60;;;;;;;14.71;38.32;103068.13;5057473;28;20124;-69
2021/03/05 03:49:52;;;;;;;11.30;2.97;;;;;;;14.29;38.97;103074.91;5058465;28;20029;-69
2021/03/05 03:52:31;;;;;;;27.48;4.07;;;;;;;14.37;38.64;103071.59;5058040;28;20074;-69
2021/03/05 03:54:58;;;;;;;10.95;4.00;;;;;;;14.39;38.44;103074.88;5054557;28;20033;-69
2021/03/05 03:57:25;;;;;;;12.18;2.25;;;;;;;14.46;38.54;103076.53;5055116;28;20033;-69
2021/03/05 03:59:53;;;;;;;17.70;2.97;;;;;;;14.51;38.80;103084.72;5055082;28;20025;-69
2021/03/05 04:02:24;;;;;;;14.65;2.97;;;;;;;14.56;38.50;103073.72;5055102;28;20028;-69
2021/03/05 04:04:50;;;;;;;9.32;2.20;;;;;;;14.58;38.08;103072.31;5055373;28;20096;-69
2021/03/05 04:07:19;;;;;;;7.85;2.17;;;;;;;14.35;38.46;103078.44;5055014;28;20024;-69
2021/03/05 04:09:45;;;;;;;12.75;2.60;;;;;;;14.28;38.59;103076.03;5054939;28;20104;-70
2021/03/05 04:12:12;;;;;;;23.33;3.67;;;;;;;14.32;38.61;103079.84;5055167;28;20025;-69
2021/03/05 04:14:38;;;;;;;10.60;2.63;;;;;;;14.23;38.47;103078.78;5054728;28;20070;-69
2021/03/05 04:17:06;;;;;;;8.52;2.80;;;;;;;14.24;38.59;103083.19;5054671;28;20029;-69
2021/03/05 04:19:32;;;;;;;9.32;2.72;;;;;;;14.16;38.54;103087.34;5054804;28;20052;-70
2021/03/05 04:21:58;;;;;;;11.30;2.38;;;;;;;13.98;39.15;103073.34;5053468;28;20025;-69
2021/03/05 04:24:24;;;;;;;9.45;2.38;;;;;;;14.02;38.93;103069.78;5054706;28;20147;-69
2021/03/05 04:26:50;;;;;;;14.38;2.42;;;;;;;14.10;38.10;103079.38;5054638;28;20112;-68
2021/03/05 04:29:15;;;;;;;9.55;1.85;;;;;;;13.97;38.12;103083.53;5054836;28;20099;-68
2021/03/05 04:31:41;;;;;;;11.48;2.33;;;;;;;13.98;38.21;103068.72;5054565;28;20513;-68
2021/03/05 04:34:07;;;;;;;12.32;3.03;;;;;;;14.06;38.05;103079.13;5054492;28;20021;-69
2021/03/05 04:36:33;;;;;;;8.05;1.90;;;;;;;14.11;37.26;103081.03;5054433;28;20341;-69
2021/03/05 04:38:59;;;;;;;12.93;2.10;;;;;;;14.18;37.18;103089.78;5053149;28;20033;-69
2021/03/05 04:41:24;;;;;;;15.05;3.80;;;;;;;13.91;36.97;103084.66;5053057;28;20099;-78
2021/03/05 04:43:50;;;;;;;9.35;2.38;;;;;;;14.00;36.64;103085.75;5054248;28;20037;-69
2021/03/05 04:46:16;;;;;;;13.15;3.50;;;;;;;13.97;36.37;103091.78;5053963;28;20044;-69
2021/03/05 04:48:41;;;;;;;8.07;1.67;;;;;;;14.01;35.84;103095.63;5054152;28;20060;-69
2021/03/05 04:51:07;;;;;;;8.45;1.50;;;;;;;13.93;35.37;103098.94;5054159;28;20075;-72
2021/03/05 04:53:32;;;;;;;5.53;1.73;;;;;;;13.88;35.30;103101.69;5054382;28;20020;-68
2021/03/05 04:55:58;;;;;;;6.13;1.38;;;;;;;13.67;34.97;103100.91;5052877;28;20025;-69
2021/03/05 04:58:23;;;;;;;11.18;1.90;;;;;;;13.95;34.50;103104.16;5053983;28;20079;-69
2021/03/05 05:00:49;;;;;;;11.38;2.40;;;;;;;14.12;34.52;103107.41;5053972;28;20025;-70
2021/03/05 05:03:15;;;;;;;9.63;1.85;;;;;;;13.94;35.09;103110.75;5053988;28;20083;-68
2021/03/05 05:05:40;;;;;;;7.63;1.30;;;;;;;13.67;34.87;103116.56;5053454;28;20025;-68
2021/03/05 05:08:07;;;;;;;6.93;1.67;;;;;;;13.80;34.32;103121.50;5053784;28;20078;-69
2021/03/05 05:10:33;;;;;;;11.52;2.03;;;;;;;13.72;34.17;103122.06;5052605;28;20032;-68
2021/03/05 05:12:59;;;;;;;19.33;3.00;;;;;;;13.62;34.51;103130.31;5053841;28;20025;-69
2021/03/05 05:15:24;;;;;;;8.57;2.03;;;;;;;13.60;35.29;103127.81;5053692;28;20535;-69
2021/03/05 05:17:50;;;;;;;16.02;3.20;;;;;;;13.82;35.15;103125.59;5053663;28;20079;-74
2021/03/05 05:20:16;;;;;;;5.80;1.90;;;;;;;13.77;35.17;103125.63;5053584;28;20060;-68
2021/03/05 05:22:42;;;;;;;10.73;2.92;;;;;;;13.75;35.58;103124.25;5053851;28;20040;-69
2021/03/05 05:25:08;;;;;;;5.60;2.00;;;;;;;13.72;35.69;103128.38;5053514;28;20413;-69
2021/03/05 05:27:34;;;;;;;10.60;2.28;;;;;;;13.83;35.66;103126.47;5053445;28;20399;-69
2021/03/05 05:30:00;;;;;;;11.05;2.88;;;;;;;13.88;35.71;103129.19;5053405;28;20029;-69
2021/03/05 05:32:26;;;;;;;9.07;2.72;;;;;;;14.00;35.84;103135.22;5053352;28;20032;-68
2021/03/05 05:34:51;;;;;;;21.92;3.97;;;;;;;13.86;36.03;103132.22;5053263;28;20029;-68
2021/03/05 05:37:17;;;;;;;11.73;2.33;;;;;;;13.81;35.83;103132.22;5053324;28;20028;-69
2021/03/05 05:39:42;;;;;;;11.52;2.45;;;;;;;13.71;35.65;103136.91;5053025;28;20048;-68
2021/03/05 05:42:09;;;;;;;11.48;2.67;;;;;;;14.04;35.28;103132.72;5053295;28;20375;-68
2021/03/05 05:44:35;;;;;;;8.43;2.13;;;;;;;14.00;35.60;103139.88;5053188;28;20033;-69
2021/03/05 05:47:01;;;;;;;10.95;2.55;;;;;;;13.88;35.48;103137.44;5053135;28;20033;-68
2021/03/05 05:49:28;;;;;;;10.52;2.03;;;;;;;13.81;35.39;103150.63;5053165;28;20029;-69
2021/03/05 05:51:59;;;;;;;8.13;1.83;;;;;;;13.88;35.66;103145.66;5052979;28;20025;-69
2021/03/05 05:54:27;;;;;;;4.75;1.60;;;;;;;13.89;35.43;103142.63;5053076;28;20025;-68
2021/03/05 05:56:53;;;;;;;18.17;4.38;;;;;;;13.78;35.82;103143.75;5052924;28;20044;-69
2021/03/05 05:59:19;;;;;;;7.45;2.03;;;;;;;13.86;35.24;103136.88;5052936;28;20032;-69
2021/03/05 06:01:46;;;;;;;17.00;2.70;;;;;;;13.95;35.25;103142.63;5053171;28;20029;-68
2021/03/05 06:04:15;;;;;;;19.45;3.08;;;;;;;13.92;35.25;103140.47;5052794;28;20033;-69
2021/03/05 06:06:41;;;;;;;26.15;4.13;;;;;;;13.80;35.21;103140.72;5052869;28;20036;-69
2021/03/05 06:09:06;;;;;;;14.02;2.70;;;;;;;13.73;35.10;103143.75;5052884;28;20411;-68
2021/03/05 06:11:42;;;;;;;7.07;2.40;;;;;;;13.84;35.09;103139.09;5052729;28;20029;-69
2021/03/05 06:14:10;;;;;;;11.82;4.53;;;;;;;14.01;34.84;103149.78;5052723;28;20036;-69
2021/03/05 06:16:55;;;;;;;9.40;2.35;;;;;;;13.97;34.87;103138.50;5052155;28;20025;-69
2021/03/05 06:19:22;;;;;;;7.07;1.63;;;;;;;14.00;34.97;103148.13;5052673;28;20037;-69
2021/03/05 06:21:49;;;;;;;13.93;3.15;;;;;;;13.89;35.80;103155.56;5052856;28;20100;-69
2021/03/05 06:24:14;;;;;;;11.43;2.38;;;;;;;14.12;35.09;103152.22;5053005;28;20391;-69
2021/03/05 06:26:52;;;;;;;8.10;2.17;;;;;;;13.95;35.16;103148.13;5052779;28;20063;-69
2021/03/05 06:29:20;;;;;;;11.45;2.40;;;;;;;14.04;35.18;103157.47;5052470;28;20151;-68
2021/03/05 06:32:00;;;;;;;31.63;5.13;;;;;;;14.29;34.82;103168.41;5052412;28;20024;-68
2021/03/05 06:34:27;;;;;;;8.25;1.52;;;;;;;14.19;35.00;103176.69;5052412;28;20052;-69
2021/03/05 06:37:03;;;;;;;11.13;2.42;;;;;;;14.29;34.70;103175.84;5052527;28;20356;-68
2021/03/05 06:39:29;;;;;;;31.42;4.85;;;;;;;14.43;34.59;103176.88;5052246;28;20021;-69
2021/03/05 06:42:07;;;;;;;11.65;2.90;;;;;;;14.33;34.62;103177.75;5052340;28;20064;-69
2021/03/05 06:44:38;;;;;;;11.57;1.60;;;;;;;14.13;35.00;103175.03;5052384;28;20059;-68
2021/03/05 06:47:15;;;;;;;53.63;6.22;;;;;;;14.02;35.22;103176.16;5052263;28;20032;-69
2021/03/05 06:49:43;;;;;;;8.23;2.00;;;;;;;14.19;35.27;103184.91;5051151;28;20060;-69
2021/03/05 06:52:11;;;;;;;7.38;1.90;;;;;;;14.09;35.01;103183.03;5052587;28;20493;-69
2021/03/05 06:54:41;;;;;;;9.43;2.10;;;;;;;14.27;34.75;103187.09;5052476;28;20525;-68
2021/03/05 06:57:09;;;;;;;6.68;1.98;;;;;;;14.37;34.49;103187.09;5052160;28;20125;-68
2021/03/05 06:59:45;;;;;;;6.07;2.05;;;;;;;14.29;34.24;103192.34;5052434;28;20496;-69
2021/03/05 07:02:17;;;;;;;15.88;4.80;;;;;;;14.36;34.33;103196.47;5052438;28;20079;-68
2021/03/05 07:04:42;;;;;;;23.65;5.20;;;;;;;14.30;35.29;103194.00;5052159;28;20017;-68
2021/03/05 07:07:09;;;;;;;12.40;1.90;;;;;;;14.39;35.02;103195.88;5052178;28;20369;-69
2021/03/05 07:09:43;;;;;;;7.00;1.67;;;;;;;14.20;34.85;103203.06;5052026;28;20025;-70
2021/03/05 07:12:21;;;;;;;5.43;1.35;;;;;;;14.06;34.35;103202.00;5052106;28;20506;-68
2021/03/05 07:14:48;;;;;;;10.52;1.52;;;;;;;14.15;33.97;103205.84;5052104;28;20017;-68
2021/03/05 07:17:16;;;;;;;24.38;3.20;;;;;;;14.20;33.90;103203.06;5051080;28;20104;-68
2021/03/05 07:19:42;;;;;;;12.10;1.92;;;;;;;14.24;33.71;103203.34;5051417;28;20025;-67
2021/03/05 07:22:09;;;;;;;9.65;2.03;;;;;;;14.30;34.13;103214.06;5050705;28;20021;-66
2021/03/05 07:24:38;;;;;;;8.07;1.90;;;;;;;14.36;34.12;103214.88;5051928;28;20027;-66
2021/03/05 07:27:06;;;;;;;9.30;2.20;;;;;;;14.43;33.64;103213.50;5051953;28;20035;-67
2021/03/05 07:29:34;;;;;;;11.48;2.10;;;;;;;14.18;33.88;103215.44;5054567;28;20539;-66
2021/03/05 07:32:05;;;;;;;30.25;4.45;;;;;;;14.40;33.63;103211.28;5055668;28;20064;-68
2021/03/05 07:34:37;;;;;;;7.65;1.83;;;;;;;14.48;33.53;103220.09;5055676;28;20020;-66
2021/03/05 07:37:06;;;;;;;8.45;1.95;;;;;;;14.31;33.96;103209.38;5055572;28;20494;-66
2021/03/05 07:39:35;;;;;;;17.73;2.70;;;;;;;14.31;33.99;103215.72;5055348;28;20021;-66
2021/03/05 07:42:02;;;;;;;4.72;1.90;;;;;;;14.44;33.74;103217.88;5055622;28;20036;-66
2021/03/05 07:44:28;;;;;;;11.55;1.95;;;;;;;14.39;33.63;103220.63;5054259;28;20391;-66
2021/03/05 07:46:54;;;;;;;5.63;1.23;;;;;;;14.34;33.52;103222.56;5054148;28;20033;-67
2021/03/05 07:49:26;;;;;;;19.45;3.60;;;;;;;14.26;33.05;103229.47;5055245;28;20078;-67
2021/03/05 07:51:54;;;;;;;8.40;2.38;;;;;;;14.22;33.22;103225.63;5055338;28;20033;-67
2021/03/05 07:54:39;;;;;;;7.90;2.13;;;;;;;14.19;32.95;103226.16;5055081;28;20139;-68
2021/03/05 07:57:05;;;;;;;10.65;2.58;;;;;;;14.34;33.09;103219.81;5055033;28;20029;-67
2021/03/05 07:59:40;;;;;;;7.78;1.75;;;;;;;14.00;32.52;103225.94;5055318;28;20028;-71
2021/03/05 08:02:06;;;;;;;6.68;1.45;;;;;;;14.36;31.70;103225.88;5055176;28;20116;-68
2021/03/05 08:04:59;;;;;;;19.23;2.50;;;;;;;14.40;31.38;103225.03;5053771;28;20074;-70
2021/03/05 08:08:05;;;;;;;15.90;3.15;;;;;;;14.58;31.14;103223.63;5053833;28;20123;-73
2021/03/05 08:10:36;;;;;;;14.00;1.52;;;;;;;14.60;31.17;103235.22;5069905;28;20492;-69
2021/03/05 08:13:02;;;;;;;8.68;1.52;;;;;;;14.67;30.90;103235.72;5054673;28;20039;-70
2021/03/05 08:15:27;;;;;;;9.85;2.20;;;;;;;14.40;31.12;103243.47;5055004;28;20021;-68
2021/03/05 08:17:55;;;;;;;7.55;1.90;;;;;;;14.57;31.33;103237.69;5054536;28;20036;-78
2021/03/05 08:20:20;;;;;;;12.38;3.10;;;;;;;14.58;31.79;103234.63;5051919;28;20075;-69
2021/03/05 08:22:58;;;;;;;8.80;1.90;;;;;;;14.59;31.77;103241.81;5052975;28;20471;-69
2021/03/05 08:25:27;;;;;;;12.82;2.15;;;;;;;14.69;31.99;103243.72;5052801;28;20102;-69
2021/03/05 08:27:53;;;;;;;5.80;2.20;;;;;;;14.52;31.86;103237.72;5052852;28;20017;-69
2021/03/05 08:30:20;;;;;;;6.80;2.03;;;;;;;14.50;31.74;103239.88;5054362;28;20033;-69
2021/03/05 08:32:54;;;;;;;9.43;2.25;;;;;;;14.65;31.10;103242.59;5038456;28;20061;-73
2021/03/05 08:35:29;;;;;;;12.70;2.28;;;;;;;14.63;31.20;103239.31;5036815;28;20074;-69
2021/03/05 08:38:05;;;;;;;30.33;7.28;;;;;;;14.35;31.79;103249.78;5037865;28;20061;-69
2021/03/05 08:40:38;;;;;;;31.58;4.88;;;;;;;14.67;31.16;103252.25;5042576;28;20045;-69
2021/03/05 08:43:10;;;;;;;18.05;3.28;;;;;;;14.52;31.79;103255.03;5054285;28;20029;-81
2021/03/05 08:45:42;;;;;;;16.25;2.33;;;;;;;14.61;31.01;103252.53;5052250;28;20020;-69
2021/03/05 08:48:08;;;;;;;9.13;2.50;;;;;;;14.36;31.78;103259.72;5054135;28;20036;-70
2021/03/05 08:50:36;;;;;;;20.05;2.72;;;;;;;14.59;31.16;103268.50;5049939;28;20115;-71
2021/03/05 08:53:08;;;;;;;16.33;2.70;;;;;;;14.81;30.51;103257.13;5037457;28;20032;-69
2021/03/05 08:55:39;;;;;;;14.73;2.05;;;;;;;14.91;30.01;103263.44;5037095;28;20029;-69
2021/03/05 08:58:05;;;;;;;13.45;2.63;;;;;;;14.96;30.55;103263.44;5036721;28;20025;-69
2021/03/05 09:00:33;;;;;;;11.65;2.58;;;;;;;15.04;30.34;103267.53;5037143;28;20590;-70
2021/03/05 09:03:07;;;;;;;13.63;2.88;;;;;;;14.84;31.02;103267.59;5036160;28;20040;-69
2021/03/05 09:05:37;;;;;;;6.85;3.28;;;;;;;14.89;31.04;103276.69;5035827;28;20036;-69
2021/03/05 09:08:04;;;;;;;8.77;2.33;;;;;;;15.10;30.65;103282.06;5037195;28;20035;-69
2021/03/05 09:10:54;;;;;;;14.00;5.05;;;;;;;15.13;29.61;103285.09;5036855;28;20039;-70
2021/03/05 09:13:22;;;;;;;21.70;3.63;;;;;;;15.23;29.81;103279.53;5036801;28;20107;-69
2021/03/05 09:15:50;;;;;;;7.78;1.63;;;;;;;15.17;29.84;103285.34;5036989;28;20019;-69
2021/03/05 09:18:24;;;;;;;5.57;1.65;;;;;;;14.88;30.23;103279.69;5037578;28;20082;-69
2021/03/05 09:20:58;;;;;;;7.40;1.58;;;;;;;15.14;30.09;103288.69;5035068;28;20021;-69
2021/03/05 09:23:31;;;;;;;10.82;2.30;;;;;;;15.34;29.92;103285.00;5034037;28;20048;-73
2021/03/05 09:26:16;;;;;;;5.18;1.25;;;;;;;15.45;29.92;103281.91;5036442;28;20029;-69
2021/03/05 09:28:49;;;;;;;6.85;1.45;;;;;;;15.30;30.40;103286.69;5035055;28;20128;-71
2021/03/05 09:31:23;;;;;;;12.00;2.67;;;;;;;15.36;30.05;103286.38;5033329;28;20025;-75
2021/03/05 09:33:48;;;;;;;16.20;3.65;;;;;;;15.54;30.13;103285.69;5029353;28;20422;-72
2021/03/05 09:36:16;;;;;;;13.20;2.20;;;;;;;15.51;30.50;103282.72;5044172;28;20036;-83
2021/03/05 09:38:52;;;;;;;10.05;2.08;;;;;;;15.66;30.47;103276.31;5047433;28;20031;-81
2021/03/05 09:41:22;;;;;;;9.57;1.92;;;;;;;15.50;30.74;103281.06;5047839;28;20033;-72
2021/03/05 09:44:07;;;;;;;12.80;1.90;;;;;;;15.36;31.38;103278.09;5049465;28;20025;-85
2021/03/05 09:46:35;;;;;;;20.30;4.20;;;;;;;15.27;31.53;103277.88;5050404;28;20025;-69
2021/03/05 09:49:27;;;;;;;7.90;1.90;;;;;;;15.35;30.73;103281.97;5041075;28;20025;-82
2021/03/05 09:51:53;;;;;;;21.38;8.50;;;;;;;15.35;31.43;103281.97;5050744;28;20502;-69
2021/03/05 09:54:33;;;;;;;8.15;2.08;;;;;;;15.48;31.32;103284.06;5052910;28;20371;-69
2021/03/05 09:56:58;;;;;;;;;;;;;;;15.53;31.17;103297.00;5052630;28;20086;-69
2021/03/05 09:59:43;;;;;;;8.88;1.90;;;;;;;15.55;30.91;103294.78;5051510;28;19913;-78
2021/03/05 10:02:08;;;;;;;12.95;2.60;;;;;;;15.63;30.90;103290.63;5046015;28;20032;-81
2021/03/05 10:04:45;;;;;;;10.85;2.28;;;;;;;15.52;30.48;103300.88;5047821;28;20422;-83
2021/03/05 10:07:11;;;;;;;12.55;3.10;;;;;;;15.78;30.37;103305.13;5050660;28;20021;-79
2021/03/05 10:09:36;;;;;;;51.03;6.25;;;;;;;15.57;30.61;103300.00;5052295;28;20029;-69
2021/03/05 10:12:02;;;;;;;8.18;2.45;;;;;;;15.84;30.08;103308.69;5051458;28;20112;-69
2021/03/05 10:14:32;;;;;;;6.70;1.75;;;;;;;15.62;30.51;103302.78;5051916;28;20025;-66
2021/03/05 10:17:15;;;;;;;10.32;2.88;;;;;;;15.63;30.43;103310.75;5052263;28;20112;-66
2021/03/05 10:19:42;;;;;;;25.40;4.00;;;;;;;15.65;30.62;103305.81;5051263;28;20029;-67
2021/03/05 10:22:09;;;;;;;11.57;2.92;;;;;;;15.36;31.10;103304.84;5051424;28;20021;-67
2021/03/05 10:24:35;;;;;;;8.60;1.77;;;;;;;15.50;30.70;103314.94;5047549;28;20437;-68
2021/03/05 10:27:21;;;;;;;9.85;2.83;;;;;;;15.61;30.56;103314.88;5046454;28;20124;-73
2021/03/05 10:29:47;;;;;;;21.98;4.00;;;;;;;15.47;31.31;103315.50;5051440;28;20487;-83
2021/03/05 10:32:28;;;;;;;10.27;2.40;;;;;;;15.47;31.38;103323.75;5045651;28;20032;-78
2021/03/05 10:34:55;;;;;;;8.40;1.63;;;;;;;15.46;31.12;103322.13;5041730;28;20033;-67
2021/03/05 10:37:21;;;;;;;13.23;2.85;;;;;;;15.41;31.02;103329.59;5042895;28;20043;-67
2021/03/05 10:39:48;;;;;;;22.35;7.38;;;;;;;15.29;31.21;103326.34;5049275;28;20400;-67
2021/03/05 10:42:16;;;;;;;9.13;3.70;;;;;;;15.37;30.88;103336.78;5051058;28;20154;-88
2021/03/05 10:44:44;;;;;;;10.05;2.30;;;;;;;15.40;30.64;103331.50;5050879;28;20029;-67
2021/03/05 10:47:11;;;;;;;25.40;7.13;;;;;;;15.50;30.90;103339.75;5050608;28;20112;-72
2021/03/05 10:49:38;;;;;;;34.70;18.77;;;;;;;15.72;30.98;103338.56;5050635;28;20017;-78
2021/03/05 10:52:10;;;;;;;40.35;19.00;;;;;;;15.66;30.76;103339.69;5050997;28;20472;-80
2021/03/05 10:54:36;;;;;;;13.32;6.25;;;;;;;15.87;30.74;103335.72;5043115;28;20112;-69
2021/03/05 10:57:03;;;;;;;15.43;6.45;;;;;;;15.95;30.92;103337.03;5048869;28;20037;-81
2021/03/05 10:59:28;;;;;;;19.23;10.27;;;;;;;16.01;30.94;103336.69;5049927;28;20033;-80
2021/03/05 11:01:54;;;;;;;8.50;1.70;;;;;;;16.01;30.32;103338.63;5050843;28;20083;-80
2021/03/05 11:04:25;;;;;;;11.80;3.20;;;;;;;15.78;29.65;103348.44;5049318;28;20052;-82
2021/03/05 11:06:53;;;;;;;9.55;2.65;;;;;;;15.97;29.61;103338.38;5054421;28;20479;-84
2021/03/05 11:09:26;;;;;;;9.52;3.55;;;;;;;15.82;30.19;103350.34;5054755;28;20044;-85
2021/03/05 11:11:53;;;;;;;54.17;25.40;;;;;;;16.11;29.81;103346.03;5053845;28;20063;-83
2021/03/05 11:14:18;;;;;;;23.55;13.23;;;;;;;15.95;30.21;103348.06;5055210;28;20025;-85
2021/03/05 11:16:44;;;;;;;25.70;13.57;;;;;;;15.76;30.37;103353.41;5054727;28;20532;-84
2021/03/05 11:19:10;;;;;;;43.75;18.58;;;;;;;15.75;30.30;103355.34;5055498;28;20029;-84
2021/03/05 11:21:36;;;;;;;36.03;20.58;;;;;;;15.97;30.04;103351.34;5055638;28;20024;-85
2021/03/05 11:24:03;;;;;;;17.83;10.82;;;;;;;16.03;30.03;103356.56;5055729;28;20040;-84
2021/03/05 11:26:28;;;;;;;19.50;12.00;;;;;;;16.21;29.62;103354.22;5044168;28;20032;-84
2021/03/05 11:28:54;;;;;;;37.67;23.00;;;;;;;16.16;29.86;103359.75;5046517;28;20025;-83